National Weather Service United States Department of Commerce
Click Here for Latest Airport Weather Warnings
 
Latest Huntsville TAF


672
FTUS44 KHUN 171120
TAFHSV
TAF
KHSV 171120Z 1712/1812 VRB04KT P6SM SCT120
FM171600 25008G14KT P6SM VCSH BKN100
FM171800 28008G15KT P6SM VCTS BKN100CB
TEMPO 1719/1721 4SM -SHRA BR OVC025
FM180300 00000KT 6SM -SHRA BR BKN090 PROB30 1806/1812 2SM TSRA
BR OVC025CB=

Latest Muscle Shoals TAF


676
FTUS44 KHUN 171120
TAFMSL
TAF
KMSL 171120Z 1712/1812 VRB04KT P6SM SCT120
FM171500 25008G14KT P6SM BKN110
TEMPO 1718/1719 4SM -SHRA BR OVC025
FM180200 00000KT 6SM SHRA BR VCTS BKN090CB PROB30 1809/1810 4SM
TSRA BR OVC025CB
FM181000 00000KT 6SM -SHRA BR BKN015 PROB30 1810/1812 2SM TSRA
BR OVC008CB=

CSV RNC BNA JWN M91 MRC SNH MSL HSV CMD 8A0 4A9 GAD MKL DYR FYE TUP JAU MMI CHA DNN BHM SCD EET TCL STF CTJ ALX LGC CCO 6A2 OPN Atlanta International Airport DCU SYI THA BGF MDQ FYM ASN ANB Fulton County Airport Dekalb Peachtree Airport Jasper Walker County Airport
Visible Imagery Infrared Imagery
Latest Surface Analysis
12-Hour Surface Forecast 24-Hour Surface Forecast
36-Hour Surface Forecast 48-Hour Surface Forecast

Observational Tools

Back to Main Huntsville Weather Forecast Office Page